KLAS

Mc Carran International Airport

Las Vegas, Nevada, USA
KLAS 210847Z 2109/2212 22006KT P6SM SKC FM212000 07006KT P6SM SKC FM220400 20006KT P6SM SKC
Issued Valid From Valid To
Apr-21 @ 08:47 UTC
(51 minutes ago)
Apr-21 @ 09:00 UTC
(38 minutes ago)
Apr-22 @ 12:00 UTC
(-1 days ago)
Apr-21 @ 09:00 to Apr-21 @ 20:00
KLAS 210847Z 2109/2212 22006KT P6SM SKC
Wind Visibility Clouds
220° at 6 knots Greater than 6 miles
  • Clear skies
From Apr-21 @ 20:00 to Apr-22 @ 04:00
FM212000 07006KT P6SM SKC
Wind Visibility Clouds
70° at 6 knots Greater than 6 miles
  • Clear skies
From Apr-22 @ 04:00 to Apr-22 @ 12:00
FM220400 20006KT P6SM SKC
Wind Visibility Clouds
200° at 6 knots Greater than 6 miles
  • Clear skies
KLAS 210847Z 2109/2212 22006KT P6SM SKC FM212000 07006KT P6SM SKC FM220400 20006KT P6SM SKC
Issued Apr-21 @ 08:47 UTC
(51 minutes ago)
Valid From Apr-21 @ 09:00 UTC
(38 minutes ago)
Valid To Apr-22 @ 12:00 UTC
(-1 days ago)
Apr-21 @ 09:00 - Apr-21 @ 20:00
Wind Visibility
220° at 6 knots Greater than 6 miles
Clouds
  • Clear skies
From Apr-21 @ 20:00 - Apr-22 @ 04:00
Wind Visibility
70° at 6 knots Greater than 6 miles
Clouds
  • Clear skies
From Apr-22 @ 04:00 - Apr-22 @ 12:00
Wind Visibility
200° at 6 knots Greater than 6 miles
Clouds
  • Clear skies